North Franklin, CT (06254)

12:08 AM EDT on May 24, 2015 (GMT -0400)
Intersection of Pleasure Hill Road and Hyde Park Road | | Change Station
CLOSE
Current Station
Personal Weather Station
Location: Franklin, CT
Elevation: 492 ft
Nearby Weather Stations

Elev 492 ft 41.65 °N, 72.14 °W | Updated 9 minutes ago

Clear
Clear
47.7 °F
Feels Like 48 °F
N
0.0
Wind Variable Wind from NNW

Today
High -- | Low -- °F
--% Chance of Precip.
Yesterday
High -- | Low -- °F
Precip. -- in
5:21 AM 8:09 PM
Waxing Crescent, 35% visible
Pressure 30.34 in
Visibility 10.0 miles
Clouds Clear
Windchill 48 °F
Dew Point 38 °F
Humidity 69%
Rainfall in
Snow Depth Not available.
UV 0 out of 12
Pollen 9.00 out of 12
Air Quality Not available.
Flu Activity Regional
METAR KIJD 240352Z AUTO VRB03KT 10SM CLR 10/04 A3033 RMK AO2 SLP272 T01000039

More Conditions Fewer Conditions

Pressure 30.34 in
Visibility 10.0 miles
Clouds Clear
Windchill 48 °F
Dew Point 38 °F
Humidity 69%
Rainfall in
Snow Depth Not available.
UV 0 out of 12
Pollen 9.00 out of 12
Air Quality Not available.
Flu Activity Regional
METAR KIJD 240352Z AUTO VRB03KT 10SM CLR 10/04 A3033 RMK AO2 SLP272 T01000039

More Conditions Fewer Conditions

10-Day Weather Forecast

Almanac

Astronomy

May. 24, 2015 Rise Set
Actual Time
Civil Twilight
Nautical Twilight
Astronomical Twilight
Moon
Length of Visible Light
Length of Day
Tomorrow will be .
, % of the Moon is Illuminated

Today's Extremes

State Highs State Lows

Community

WunderPhotos

Upload Photos

1,823,679 photos uploaded!

WunderBlogs® & News

Nearby

Air Quality

  Air Quality AQ Index Pollutant
Not available.

Snow Depth

Station Depth Elevation

Earthquake Activity

City Distance Mag. Time & Date
Minimum magnitude displayed is 2.5.

Coastal Water Temperatures

Place Temperature

Stations

Nearby Weather Stations

Station Location Temp. Windchill Dew Point Humidity Wind Precip. Elev Updated Type